sensor_id;sensor_type;location;lat;lon;timestamp;P1;durP1;ratioP1;P2;durP2;ratioP2
53281;SDS011;39167;52.794;6.892;2022-10-16T00:00:56;6.50;;;2.22;;
53281;SDS011;39167;52.794;6.892;2022-10-16T00:03:22;7.28;;;1.65;;
53281;SDS011;39167;52.794;6.892;2022-10-16T00:05:48;7.63;;;1.98;;
53281;SDS011;39167;52.794;6.892;2022-10-16T00:08:14;7.80;;;2.50;;
53281;SDS011;39167;52.794;6.892;2022-10-16T00:10:40;6.25;;;2.40;;
53281;SDS011;39167;52.794;6.892;2022-10-16T00:13:06;5.28;;;1.98;;
53281;SDS011;39167;52.794;6.892;2022-10-16T00:15:35;7.00;;;2.20;;
53281;SDS011;39167;52.794;6.892;2022-10-16T00:18:02;8.55;;;2.42;;
53281;SDS011;39167;52.794;6.892;2022-10-16T00:20:29;9.45;;;2.58;;
53281;SDS011;39167;52.794;6.892;2022-10-16T00:22:56;5.45;;;2.67;;
53281;SDS011;39167;52.794;6.892;2022-10-16T00:25:22;5.45;;;2.33;;
53281;SDS011;39167;52.794;6.892;2022-10-16T00:27:48;8.98;;;3.00;;
53281;SDS011;39167;52.794;6.892;2022-10-16T00:30:14;10.63;;;2.83;;
53281;SDS011;39167;52.794;6.892;2022-10-16T00:32:39;8.02;;;1.90;;
53281;SDS011;39167;52.794;6.892;2022-10-16T00:35:05;9.10;;;2.30;;
53281;SDS011;39167;52.794;6.892;2022-10-16T00:37:31;8.43;;;2.58;;
53281;SDS011;39167;52.794;6.892;2022-10-16T00:39:57;6.40;;;2.55;;
53281;SDS011;39167;52.794;6.892;2022-10-16T00:42:22;9.05;;;2.60;;
53281;SDS011;39167;52.794;6.892;2022-10-16T00:44:50;6.05;;;2.20;;
53281;SDS011;39167;52.794;6.892;2022-10-16T00:47:22;8.27;;;2.80;;
53281;SDS011;39167;52.794;6.892;2022-10-16T00:49:50;8.68;;;2.53;;
53281;SDS011;39167;52.794;6.892;2022-10-16T00:52:18;7.45;;;2.65;;
53281;SDS011;39167;52.794;6.892;2022-10-16T00:54:44;4.18;;;2.80;;
53281;SDS011;39167;52.794;6.892;2022-10-16T00:57:11;6.68;;;2.50;;
53281;SDS011;39167;52.794;6.892;2022-10-16T00:59:40;10.13;;;2.70;;
53281;SDS011;39167;52.794;6.892;2022-10-16T01:02:07;7.60;;;2.50;;
53281;SDS011;39167;52.794;6.892;2022-10-16T01:04:40;5.97;;;2.30;;
53281;SDS011;39167;52.794;6.892;2022-10-16T01:09:57;7.07;;;2.47;;
53281;SDS011;39167;52.794;6.892;2022-10-16T01:15:00;9.00;;;2.53;;
53281;SDS011;39167;52.794;6.892;2022-10-16T01:17:39;6.88;;;2.60;;
53281;SDS011;39167;52.794;6.892;2022-10-16T01:20:31;5.70;;;2.22;;
53281;SDS011;39167;52.794;6.892;2022-10-16T01:23:19;5.55;;;2.20;;
53281;SDS011;39167;52.794;6.892;2022-10-16T01:31:15;7.95;;;2.97;;
53281;SDS011;39167;52.794;6.892;2022-10-16T01:33:45;8.07;;;2.83;;
53281;SDS011;39167;52.794;6.892;2022-10-16T01:36:15;9.93;;;3.15;;
53281;SDS011;39167;52.794;6.892;2022-10-16T01:38:46;6.43;;;2.40;;
53281;SDS011;39167;52.794;6.892;2022-10-16T01:41:21;7.00;;;2.35;;
53281;SDS011;39167;52.794;6.892;2022-10-16T01:44:07;6.10;;;2.25;;
53281;SDS011;39167;52.794;6.892;2022-10-16T01:46:55;6.70;;;2.58;;
53281;SDS011;39167;52.794;6.892;2022-10-16T01:49:23;7.43;;;2.78;;
53281;SDS011;39167;52.794;6.892;2022-10-16T01:51:52;7.97;;;2.58;;
53281;SDS011;39167;52.794;6.892;2022-10-16T01:54:21;8.60;;;3.10;;
53281;SDS011;39167;52.794;6.892;2022-10-16T01:56:48;5.88;;;2.40;;
53281;SDS011;39167;52.794;6.892;2022-10-16T01:59:16;7.22;;;2.33;;
53281;SDS011;39167;52.794;6.892;2022-10-16T02:01:46;7.28;;;2.13;;
53281;SDS011;39167;52.794;6.892;2022-10-16T02:04:21;6.18;;;2.38;;
53281;SDS011;39167;52.794;6.892;2022-10-16T02:06:52;5.22;;;2.33;;
53281;SDS011;39167;52.794;6.892;2022-10-16T02:09:18;6.90;;;2.75;;
53281;SDS011;39167;52.794;6.892;2022-10-16T02:11:44;8.82;;;2.72;;
53281;SDS011;39167;52.794;6.892;2022-10-16T02:14:10;5.22;;;2.10;;
53281;SDS011;39167;52.794;6.892;2022-10-16T02:16:37;5.75;;;2.42;;
53281;SDS011;39167;52.794;6.892;2022-10-16T02:19:05;5.82;;;2.75;;
53281;SDS011;39167;52.794;6.892;2022-10-16T02:27:00;6.15;;;2.63;;
53281;SDS011;39167;52.794;6.892;2022-10-16T02:29:36;6.28;;;2.00;;
53281;SDS011;39167;52.794;6.892;2022-10-16T02:32:10;8.43;;;2.47;;
53281;SDS011;39167;52.794;6.892;2022-10-16T02:34:40;8.40;;;2.47;;
53281;SDS011;39167;52.794;6.892;2022-10-16T02:37:06;6.40;;;2.60;;
53281;SDS011;39167;52.794;6.892;2022-10-16T02:39:32;7.45;;;2.00;;
53281;SDS011;39167;52.794;6.892;2022-10-16T02:41:59;7.20;;;2.28;;
53281;SDS011;39167;52.794;6.892;2022-10-16T02:44:25;7.80;;;2.05;;
53281;SDS011;39167;52.794;6.892;2022-10-16T02:46:50;6.72;;;2.03;;
53281;SDS011;39167;52.794;6.892;2022-10-16T02:49:16;6.43;;;2.20;;
53281;SDS011;39167;52.794;6.892;2022-10-16T02:51:43;5.72;;;2.42;;
53281;SDS011;39167;52.794;6.892;2022-10-16T02:54:08;4.55;;;1.95;;
53281;SDS011;39167;52.794;6.892;2022-10-16T02:56:34;8.05;;;2.25;;
53281;SDS011;39167;52.794;6.892;2022-10-16T02:59:00;11.25;;;2.45;;
53281;SDS011;39167;52.794;6.892;2022-10-16T03:01:25;4.90;;;2.08;;
53281;SDS011;39167;52.794;6.892;2022-10-16T03:03:51;4.18;;;2.13;;
53281;SDS011;39167;52.794;6.892;2022-10-16T03:06:17;8.77;;;2.58;;
53281;SDS011;39167;52.794;6.892;2022-10-16T03:08:43;5.22;;;2.20;;
53281;SDS011;39167;52.794;6.892;2022-10-16T03:11:08;6.85;;;2.72;;
53281;SDS011;39167;52.794;6.892;2022-10-16T03:13:34;7.18;;;2.58;;
53281;SDS011;39167;52.794;6.892;2022-10-16T03:15:59;4.10;;;2.17;;
53281;SDS011;39167;52.794;6.892;2022-10-16T03:18:25;7.90;;;2.40;;
53281;SDS011;39167;52.794;6.892;2022-10-16T03:20:51;4.00;;;2.20;;
53281;SDS011;39167;52.794;6.892;2022-10-16T03:23:16;6.20;;;2.25;;
53281;SDS011;39167;52.794;6.892;2022-10-16T03:25:42;6.13;;;2.17;;
53281;SDS011;39167;52.794;6.892;2022-10-16T03:28:08;5.50;;;2.42;;
53281;SDS011;39167;52.794;6.892;2022-10-16T03:30:34;4.05;;;2.28;;
53281;SDS011;39167;52.794;6.892;2022-10-16T03:32:59;5.70;;;2.30;;
53281;SDS011;39167;52.794;6.892;2022-10-16T03:35:25;4.88;;;2.05;;
53281;SDS011;39167;52.794;6.892;2022-10-16T03:37:51;4.90;;;1.92;;
53281;SDS011;39167;52.794;6.892;2022-10-16T03:40:17;8.73;;;2.45;;
53281;SDS011;39167;52.794;6.892;2022-10-16T03:42:43;7.53;;;2.92;;
53281;SDS011;39167;52.794;6.892;2022-10-16T03:45:09;5.28;;;2.70;;
53281;SDS011;39167;52.794;6.892;2022-10-16T03:47:36;4.28;;;2.30;;
53281;SDS011;39167;52.794;6.892;2022-10-16T03:50:01;4.95;;;2.50;;
53281;SDS011;39167;52.794;6.892;2022-10-16T03:52:28;7.82;;;2.78;;
53281;SDS011;39167;52.794;6.892;2022-10-16T03:54:53;9.02;;;2.72;;
53281;SDS011;39167;52.794;6.892;2022-10-16T03:57:19;7.03;;;2.90;;
53281;SDS011;39167;52.794;6.892;2022-10-16T03:59:46;6.47;;;2.30;;
53281;SDS011;39167;52.794;6.892;2022-10-16T04:02:12;4.47;;;2.53;;
53281;SDS011;39167;52.794;6.892;2022-10-16T04:04:37;6.07;;;2.88;;
53281;SDS011;39167;52.794;6.892;2022-10-16T04:07:03;7.45;;;2.60;;
53281;SDS011;39167;52.794;6.892;2022-10-16T04:09:29;5.28;;;3.00;;
53281;SDS011;39167;52.794;6.892;2022-10-16T04:11:54;5.30;;;2.83;;
53281;SDS011;39167;52.794;6.892;2022-10-16T04:14:20;4.50;;;2.40;;
53281;SDS011;39167;52.794;6.892;2022-10-16T04:16:46;6.22;;;3.10;;
53281;SDS011;39167;52.794;6.892;2022-10-16T04:19:11;10.25;;;3.25;;
53281;SDS011;39167;52.794;6.892;2022-10-16T04:21:37;5.97;;;3.65;;
53281;SDS011;39167;52.794;6.892;2022-10-16T04:24:03;5.88;;;3.20;;
53281;SDS011;39167;52.794;6.892;2022-10-16T04:26:29;7.57;;;3.47;;
53281;SDS011;39167;52.794;6.892;2022-10-16T04:28:54;8.13;;;3.55;;
53281;SDS011;39167;52.794;6.892;2022-10-16T04:31:20;8.43;;;3.05;;
53281;SDS011;39167;52.794;6.892;2022-10-16T04:33:46;6.15;;;3.53;;
53281;SDS011;39167;52.794;6.892;2022-10-16T04:36:12;8.43;;;3.35;;
53281;SDS011;39167;52.794;6.892;2022-10-16T04:38:38;7.53;;;3.38;;
53281;SDS011;39167;52.794;6.892;2022-10-16T04:41:04;9.43;;;4.28;;
53281;SDS011;39167;52.794;6.892;2022-10-16T04:43:31;9.35;;;3.25;;
53281;SDS011;39167;52.794;6.892;2022-10-16T04:45:57;10.18;;;3.58;;
53281;SDS011;39167;52.794;6.892;2022-10-16T04:48:23;5.60;;;3.20;;
53281;SDS011;39167;52.794;6.892;2022-10-16T04:50:48;7.82;;;3.17;;
53281;SDS011;39167;52.794;6.892;2022-10-16T04:53:14;7.68;;;3.13;;
53281;SDS011;39167;52.794;6.892;2022-10-16T04:55:40;7.32;;;3.30;;
53281;SDS011;39167;52.794;6.892;2022-10-16T04:58:07;5.90;;;3.20;;
53281;SDS011;39167;52.794;6.892;2022-10-16T05:00:33;5.63;;;3.20;;
53281;SDS011;39167;52.794;6.892;2022-10-16T05:03:00;5.97;;;3.13;;
53281;SDS011;39167;52.794;6.892;2022-10-16T05:05:27;7.70;;;3.53;;
53281;SDS011;39167;52.794;6.892;2022-10-16T05:07:52;6.60;;;3.38;;
53281;SDS011;39167;52.794;6.892;2022-10-16T05:10:18;6.70;;;3.80;;
53281;SDS011;39167;52.794;6.892;2022-10-16T05:12:44;6.25;;;3.45;;
53281;SDS011;39167;52.794;6.892;2022-10-16T05:15:10;6.22;;;3.55;;
53281;SDS011;39167;52.794;6.892;2022-10-16T05:17:36;7.25;;;3.90;;
53281;SDS011;39167;52.794;6.892;2022-10-16T05:20:02;6.07;;;3.15;;
53281;SDS011;39167;52.794;6.892;2022-10-16T05:22:28;8.70;;;4.00;;
53281;SDS011;39167;52.794;6.892;2022-10-16T05:24:54;7.90;;;3.40;;
53281;SDS011;39167;52.794;6.892;2022-10-16T05:27:20;8.07;;;4.05;;
53281;SDS011;39167;52.794;6.892;2022-10-16T05:29:46;6.40;;;3.53;;
53281;SDS011;39167;52.794;6.892;2022-10-16T05:32:13;5.78;;;3.05;;
53281;SDS011;39167;52.794;6.892;2022-10-16T05:34:39;5.78;;;3.65;;
53281;SDS011;39167;52.794;6.892;2022-10-16T05:37:05;6.95;;;3.63;;
53281;SDS011;39167;52.794;6.892;2022-10-16T05:39:31;8.95;;;4.25;;
53281;SDS011;39167;52.794;6.892;2022-10-16T05:41:57;8.40;;;3.65;;
53281;SDS011;39167;52.794;6.892;2022-10-16T05:44:22;5.57;;;3.40;;
53281;SDS011;39167;52.794;6.892;2022-10-16T05:46:48;5.45;;;3.28;;
53281;SDS011;39167;52.794;6.892;2022-10-16T05:49:14;5.25;;;3.08;;
53281;SDS011;39167;52.794;6.892;2022-10-16T05:51:40;7.38;;;3.50;;
53281;SDS011;39167;52.794;6.892;2022-10-16T05:54:06;7.20;;;2.85;;
53281;SDS011;39167;52.794;6.892;2022-10-16T05:56:32;7.97;;;3.45;;
53281;SDS011;39167;52.794;6.892;2022-10-16T05:58:58;8.40;;;3.22;;
53281;SDS011;39167;52.794;6.892;2022-10-16T06:01:23;4.55;;;2.80;;
53281;SDS011;39167;52.794;6.892;2022-10-16T06:03:50;6.07;;;3.08;;
53281;SDS011;39167;52.794;6.892;2022-10-16T06:06:18;6.78;;;2.78;;
53281;SDS011;39167;52.794;6.892;2022-10-16T06:08:46;6.28;;;2.92;;
53281;SDS011;39167;52.794;6.892;2022-10-16T06:11:14;7.45;;;2.95;;
53281;SDS011;39167;52.794;6.892;2022-10-16T06:13:42;6.72;;;3.03;;
53281;SDS011;39167;52.794;6.892;2022-10-16T06:16:11;5.53;;;2.90;;
53281;SDS011;39167;52.794;6.892;2022-10-16T06:18:37;5.78;;;2.67;;
53281;SDS011;39167;52.794;6.892;2022-10-16T06:21:10;7.13;;;3.17;;
53281;SDS011;39167;52.794;6.892;2022-10-16T06:23:39;4.78;;;2.63;;
53281;SDS011;39167;52.794;6.892;2022-10-16T06:26:08;5.82;;;2.70;;
53281;SDS011;39167;52.794;6.892;2022-10-16T06:28:35;8.20;;;2.45;;
53281;SDS011;39167;52.794;6.892;2022-10-16T06:31:01;6.38;;;2.38;;
53281;SDS011;39167;52.794;6.892;2022-10-16T06:33:29;6.18;;;2.65;;
53281;SDS011;39167;52.794;6.892;2022-10-16T06:36:08;4.25;;;2.53;;
53281;SDS011;39167;52.794;6.892;2022-10-16T06:38:36;7.57;;;2.58;;
53281;SDS011;39167;52.794;6.892;2022-10-16T06:41:02;5.78;;;2.78;;
53281;SDS011;39167;52.794;6.892;2022-10-16T06:43:29;7.20;;;3.10;;
53281;SDS011;39167;52.794;6.892;2022-10-16T06:46:00;8.23;;;2.90;;
53281;SDS011;39167;52.794;6.892;2022-10-16T06:48:27;5.40;;;2.25;;
53281;SDS011;39167;52.794;6.892;2022-10-16T06:51:00;7.93;;;2.50;;
53281;SDS011;39167;52.794;6.892;2022-10-16T06:53:28;9.23;;;2.90;;
53281;SDS011;39167;52.794;6.892;2022-10-16T06:55:55;4.95;;;2.10;;
53281;SDS011;39167;52.794;6.892;2022-10-16T06:58:21;5.95;;;2.92;;
53281;SDS011;39167;52.794;6.892;2022-10-16T07:00:47;8.93;;;2.63;;
53281;SDS011;39167;52.794;6.892;2022-10-16T07:03:14;4.78;;;2.50;;
53281;SDS011;39167;52.794;6.892;2022-10-16T07:05:40;7.38;;;2.85;;
53281;SDS011;39167;52.794;6.892;2022-10-16T07:08:07;7.55;;;2.90;;
53281;SDS011;39167;52.794;6.892;2022-10-16T07:10:33;7.30;;;2.70;;
53281;SDS011;39167;52.794;6.892;2022-10-16T07:13:00;7.25;;;2.95;;
53281;SDS011;39167;52.794;6.892;2022-10-16T07:15:25;6.60;;;2.30;;
53281;SDS011;39167;52.794;6.892;2022-10-16T07:17:51;5.68;;;2.40;;
53281;SDS011;39167;52.794;6.892;2022-10-16T07:20:17;6.32;;;2.78;;
53281;SDS011;39167;52.794;6.892;2022-10-16T07:22:43;9.70;;;2.92;;
53281;SDS011;39167;52.794;6.892;2022-10-16T07:25:09;4.10;;;2.03;;
53281;SDS011;39167;52.794;6.892;2022-10-16T07:27:36;6.75;;;2.55;;
53281;SDS011;39167;52.794;6.892;2022-10-16T07:30:02;5.57;;;2.67;;
53281;SDS011;39167;52.794;6.892;2022-10-16T07:32:28;7.25;;;2.63;;
53281;SDS011;39167;52.794;6.892;2022-10-16T07:34:53;6.93;;;2.53;;
53281;SDS011;39167;52.794;6.892;2022-10-16T07:37:20;4.35;;;2.80;;
53281;SDS011;39167;52.794;6.892;2022-10-16T07:39:46;8.80;;;3.10;;
53281;SDS011;39167;52.794;6.892;2022-10-16T07:42:12;7.32;;;2.42;;
53281;SDS011;39167;52.794;6.892;2022-10-16T07:44:38;5.95;;;2.92;;
53281;SDS011;39167;52.794;6.892;2022-10-16T07:47:05;10.15;;;2.90;;
53281;SDS011;39167;52.794;6.892;2022-10-16T07:49:31;8.13;;;2.60;;
53281;SDS011;39167;52.794;6.892;2022-10-16T07:51:56;6.43;;;2.88;;
53281;SDS011;39167;52.794;6.892;2022-10-16T07:54:22;5.07;;;2.30;;
53281;SDS011;39167;52.794;6.892;2022-10-16T07:56:48;4.93;;;2.30;;
53281;SDS011;39167;52.794;6.892;2022-10-16T07:59:13;7.35;;;3.13;;
53281;SDS011;39167;52.794;6.892;2022-10-16T08:01:39;4.63;;;2.75;;
53281;SDS011;39167;52.794;6.892;2022-10-16T08:04:07;5.00;;;2.38;;
53281;SDS011;39167;52.794;6.892;2022-10-16T08:06:35;10.80;;;2.17;;
53281;SDS011;39167;52.794;6.892;2022-10-16T08:09:02;5.43;;;2.13;;
53281;SDS011;39167;52.794;6.892;2022-10-16T08:11:28;5.55;;;1.90;;
53281;SDS011;39167;52.794;6.892;2022-10-16T08:13:53;8.07;;;3.08;;
53281;SDS011;39167;52.794;6.892;2022-10-16T08:16:19;12.07;;;2.63;;
53281;SDS011;39167;52.794;6.892;2022-10-16T08:18:45;5.85;;;2.10;;
53281;SDS011;39167;52.794;6.892;2022-10-16T08:21:15;7.57;;;2.05;;
53281;SDS011;39167;52.794;6.892;2022-10-16T08:26:09;6.53;;;1.85;;
53281;SDS011;39167;52.794;6.892;2022-10-16T08:28:35;5.65;;;1.42;;
53281;SDS011;39167;52.794;6.892;2022-10-16T08:31:11;2.78;;;1.40;;
53281;SDS011;39167;52.794;6.892;2022-10-16T08:33:39;4.15;;;1.55;;
53281;SDS011;39167;52.794;6.892;2022-10-16T08:36:07;5.57;;;1.50;;
53281;SDS011;39167;52.794;6.892;2022-10-16T08:38:34;2.72;;;1.30;;
53281;SDS011;39167;52.794;6.892;2022-10-16T08:43:43;5.40;;;1.58;;
53281;SDS011;39167;52.794;6.892;2022-10-16T08:48:53;4.00;;;1.98;;
53281;SDS011;39167;52.794;6.892;2022-10-16T08:51:27;6.45;;;1.50;;
53281;SDS011;39167;52.794;6.892;2022-10-16T08:54:08;5.13;;;2.03;;
53281;SDS011;39167;52.794;6.892;2022-10-16T08:57:00;4.43;;;1.98;;
53281;SDS011;39167;52.794;6.892;2022-10-16T08:59:43;4.38;;;1.67;;
53281;SDS011;39167;52.794;6.892;2022-10-16T09:02:23;7.00;;;1.80;;
53281;SDS011;39167;52.794;6.892;2022-10-16T09:18:58;4.95;;;1.58;;
53281;SDS011;39167;52.794;6.892;2022-10-16T09:21:38;6.90;;;1.63;;
53281;SDS011;39167;52.794;6.892;2022-10-16T09:24:19;7.13;;;2.00;;
53281;SDS011;39167;52.794;6.892;2022-10-16T09:26:49;8.23;;;2.03;;
53281;SDS011;39167;52.794;6.892;2022-10-16T09:29:15;4.57;;;1.63;;
53281;SDS011;39167;52.794;6.892;2022-10-16T09:31:42;7.93;;;1.70;;
53281;SDS011;39167;52.794;6.892;2022-10-16T09:34:21;6.13;;;1.67;;
53281;SDS011;39167;52.794;6.892;2022-10-16T09:39:16;8.35;;;1.88;;
53281;SDS011;39167;52.794;6.892;2022-10-16T09:41:44;5.80;;;1.50;;
53281;SDS011;39167;52.794;6.892;2022-10-16T09:44:21;7.60;;;2.17;;
53281;SDS011;39167;52.794;6.892;2022-10-16T09:47:05;4.93;;;1.30;;
53281;SDS011;39167;52.794;6.892;2022-10-16T09:49:37;9.38;;;1.77;;
53281;SDS011;39167;52.794;6.892;2022-10-16T09:52:13;6.25;;;1.40;;
53281;SDS011;39167;52.794;6.892;2022-10-16T09:54:50;7.60;;;2.10;;
53281;SDS011;39167;52.794;6.892;2022-10-16T09:57:23;5.07;;;1.55;;
53281;SDS011;39167;52.794;6.892;2022-10-16T09:59:50;7.18;;;1.70;;
53281;SDS011;39167;52.794;6.892;2022-10-16T10:02:19;7.20;;;1.40;;
53281;SDS011;39167;52.794;6.892;2022-10-16T10:04:53;10.10;;;1.73;;
53281;SDS011;39167;52.794;6.892;2022-10-16T10:07:33;11.63;;;1.75;;
53281;SDS011;39167;52.794;6.892;2022-10-16T10:10:05;15.65;;;1.90;;
53281;SDS011;39167;52.794;6.892;2022-10-16T10:12:44;6.38;;;1.65;;
53281;SDS011;39167;52.794;6.892;2022-10-16T10:15:11;5.25;;;1.75;;
53281;SDS011;39167;52.794;6.892;2022-10-16T10:17:45;8.07;;;1.80;;
53281;SDS011;39167;52.794;6.892;2022-10-16T10:20:31;6.78;;;1.42;;
53281;SDS011;39167;52.794;6.892;2022-10-16T10:23:23;8.75;;;1.70;;
53281;SDS011;39167;52.794;6.892;2022-10-16T10:37:02;6.60;;;1.73;;
53281;SDS011;39167;52.794;6.892;2022-10-16T10:39:57;8.50;;;1.63;;
53281;SDS011;39167;52.794;6.892;2022-10-16T10:42:48;10.32;;;2.40;;
53281;SDS011;39167;52.794;6.892;2022-10-16T10:52:53;12.65;;;2.30;;
53281;SDS011;39167;52.794;6.892;2022-10-16T10:56:00;10.50;;;2.33;;
53281;SDS011;39167;52.794;6.892;2022-10-16T11:06:34;7.40;;;1.95;;
53281;SDS011;39167;52.794;6.892;2022-10-16T11:14:48;12.63;;;2.47;;
53281;SDS011;39167;52.794;6.892;2022-10-16T11:17:30;11.77;;;1.80;;
53281;SDS011;39167;52.794;6.892;2022-10-16T11:22:58;9.05;;;1.70;;
53281;SDS011;39167;52.794;6.892;2022-10-16T11:25:31;9.35;;;1.90;;
53281;SDS011;39167;52.794;6.892;2022-10-16T11:30:34;13.30;;;1.73;;
53281;SDS011;39167;52.794;6.892;2022-10-16T11:38:36;14.68;;;2.00;;
53281;SDS011;39167;52.794;6.892;2022-10-16T11:46:38;9.80;;;1.95;;
53281;SDS011;39167;52.794;6.892;2022-10-16T11:49:13;13.20;;;2.05;;
53281;SDS011;39167;52.794;6.892;2022-10-16T11:51:41;7.80;;;1.88;;
53281;SDS011;39167;52.794;6.892;2022-10-16T11:54:21;6.53;;;1.33;;
53281;SDS011;39167;52.794;6.892;2022-10-16T11:56:59;7.32;;;2.17;;
53281;SDS011;39167;52.794;6.892;2022-10-16T11:59:35;8.05;;;1.92;;
53281;SDS011;39167;52.794;6.892;2022-10-16T12:05:06;7.32;;;1.88;;
53281;SDS011;39167;52.794;6.892;2022-10-16T12:07:48;8.90;;;1.98;;
53281;SDS011;39167;52.794;6.892;2022-10-16T12:10:22;7.38;;;1.52;;
53281;SDS011;39167;52.794;6.892;2022-10-16T12:12:50;5.97;;;1.52;;
53281;SDS011;39167;52.794;6.892;2022-10-16T12:17:53;6.03;;;1.73;;
53281;SDS011;39167;52.794;6.892;2022-10-16T12:20:25;6.00;;;1.38;;
53281;SDS011;39167;52.794;6.892;2022-10-16T12:22:56;8.73;;;2.13;;
53281;SDS011;39167;52.794;6.892;2022-10-16T12:27:57;7.50;;;1.70;;
53281;SDS011;39167;52.794;6.892;2022-10-16T12:30:26;8.63;;;1.67;;
53281;SDS011;39167;52.794;6.892;2022-10-16T12:32:54;13.27;;;2.08;;
53281;SDS011;39167;52.794;6.892;2022-10-16T12:35:28;6.57;;;1.45;;
53281;SDS011;39167;52.794;6.892;2022-10-16T12:38:07;6.72;;;1.63;;
53281;SDS011;39167;52.794;6.892;2022-10-16T12:40:39;8.70;;;1.58;;
53281;SDS011;39167;52.794;6.892;2022-10-16T12:43:11;8.30;;;1.27;;
53281;SDS011;39167;52.794;6.892;2022-10-16T12:46:39;6.93;;;1.48;;
53281;SDS011;39167;52.794;6.892;2022-10-16T12:48:48;8.50;;;1.60;;
53281;SDS011;39167;52.794;6.892;2022-10-16T12:51:23;4.55;;;1.33;;
53281;SDS011;39167;52.794;6.892;2022-10-16T12:53:58;5.25;;;1.52;;
53281;SDS011;39167;52.794;6.892;2022-10-16T13:05:21;8.10;;;1.52;;
53281;SDS011;39167;52.794;6.892;2022-10-16T13:13:45;7.20;;;1.58;;
53281;SDS011;39167;52.794;6.892;2022-10-16T13:30:08;8.10;;;2.00;;
53281;SDS011;39167;52.794;6.892;2022-10-16T13:32:39;7.13;;;1.45;;
53281;SDS011;39167;52.794;6.892;2022-10-16T13:35:17;10.65;;;1.83;;
53281;SDS011;39167;52.794;6.892;2022-10-16T13:38:14;12.30;;;1.83;;
53281;SDS011;39167;52.794;6.892;2022-10-16T13:43:16;9.52;;;1.85;;
53281;SDS011;39167;52.794;6.892;2022-10-16T13:45:52;19.40;;;2.92;;
53281;SDS011;39167;52.794;6.892;2022-10-16T13:48:18;8.20;;;1.70;;
53281;SDS011;39167;52.794;6.892;2022-10-16T13:50:44;7.65;;;1.80;;
53281;SDS011;39167;52.794;6.892;2022-10-16T13:53:13;8.27;;;1.60;;
53281;SDS011;39167;52.794;6.892;2022-10-16T13:55:39;16.08;;;2.25;;
53281;SDS011;39167;52.794;6.892;2022-10-16T13:58:11;8.88;;;1.83;;
53281;SDS011;39167;52.794;6.892;2022-10-16T14:00:38;9.35;;;2.25;;
53281;SDS011;39167;52.794;6.892;2022-10-16T14:03:05;10.23;;;1.83;;
53281;SDS011;39167;52.794;6.892;2022-10-16T14:05:42;13.20;;;2.40;;
53281;SDS011;39167;52.794;6.892;2022-10-16T14:08:16;9.73;;;1.85;;
53281;SDS011;39167;52.794;6.892;2022-10-16T14:10:42;17.95;;;2.80;;
53281;SDS011;39167;52.794;6.892;2022-10-16T14:13:13;10.18;;;1.90;;
53281;SDS011;39167;52.794;6.892;2022-10-16T14:18:24;5.65;;;1.48;;
53281;SDS011;39167;52.794;6.892;2022-10-16T14:20:52;11.15;;;2.13;;
53281;SDS011;39167;52.794;6.892;2022-10-16T14:25:53;11.02;;;2.45;;
53281;SDS011;39167;52.794;6.892;2022-10-16T14:28:22;12.45;;;2.13;;
53281;SDS011;39167;52.794;6.892;2022-10-16T14:30:52;9.13;;;1.95;;
53281;SDS011;39167;52.794;6.892;2022-10-16T14:36:05;7.25;;;1.83;;
53281;SDS011;39167;52.794;6.892;2022-10-16T14:38:38;7.43;;;1.77;;
53281;SDS011;39167;52.794;6.892;2022-10-16T14:41:05;9.77;;;1.73;;
53281;SDS011;39167;52.794;6.892;2022-10-16T14:43:39;6.03;;;1.70;;
53281;SDS011;39167;52.794;6.892;2022-10-16T14:46:09;10.90;;;2.53;;
53281;SDS011;39167;52.794;6.892;2022-10-16T14:48:40;10.02;;;2.00;;
53281;SDS011;39167;52.794;6.892;2022-10-16T14:51:16;7.32;;;1.75;;
53281;SDS011;39167;52.794;6.892;2022-10-16T14:53:43;7.43;;;1.92;;
53281;SDS011;39167;52.794;6.892;2022-10-16T14:56:16;7.07;;;1.63;;
53281;SDS011;39167;52.794;6.892;2022-10-16T14:58:45;9.50;;;2.28;;
53281;SDS011;39167;52.794;6.892;2022-10-16T15:01:10;7.35;;;1.88;;
53281;SDS011;39167;52.794;6.892;2022-10-16T15:03:37;11.40;;;2.00;;
53281;SDS011;39167;52.794;6.892;2022-10-16T15:06:03;6.90;;;1.45;;
53281;SDS011;39167;52.794;6.892;2022-10-16T15:08:34;7.88;;;1.80;;
53281;SDS011;39167;52.794;6.892;2022-10-16T15:11:00;9.10;;;1.80;;
53281;SDS011;39167;52.794;6.892;2022-10-16T15:13:25;5.97;;;1.35;;
53281;SDS011;39167;52.794;6.892;2022-10-16T15:15:51;7.80;;;1.67;;
53281;SDS011;39167;52.794;6.892;2022-10-16T15:18:18;5.57;;;1.45;;
53281;SDS011;39167;52.794;6.892;2022-10-16T15:20:50;12.02;;;2.03;;
53281;SDS011;39167;52.794;6.892;2022-10-16T15:23:20;7.28;;;1.73;;
53281;SDS011;39167;52.794;6.892;2022-10-16T15:25:51;5.28;;;1.80;;
53281;SDS011;39167;52.794;6.892;2022-10-16T15:28:18;6.32;;;1.30;;
53281;SDS011;39167;52.794;6.892;2022-10-16T15:30:45;10.98;;;1.70;;
53281;SDS011;39167;52.794;6.892;2022-10-16T15:33:13;5.65;;;1.30;;
53281;SDS011;39167;52.794;6.892;2022-10-16T15:35:41;9.18;;;1.70;;
53281;SDS011;39167;52.794;6.892;2022-10-16T15:38:09;6.75;;;1.38;;
53281;SDS011;39167;52.794;6.892;2022-10-16T15:40:37;9.97;;;2.17;;
53281;SDS011;39167;52.794;6.892;2022-10-16T15:43:03;11.25;;;1.65;;
53281;SDS011;39167;52.794;6.892;2022-10-16T15:45:29;9.23;;;1.58;;
53281;SDS011;39167;52.794;6.892;2022-10-16T15:47:54;6.78;;;1.88;;
53281;SDS011;39167;52.794;6.892;2022-10-16T15:50:20;10.60;;;1.70;;
53281;SDS011;39167;52.794;6.892;2022-10-16T15:52:46;10.48;;;1.90;;
53281;SDS011;39167;52.794;6.892;2022-10-16T15:55:12;6.20;;;1.90;;
53281;SDS011;39167;52.794;6.892;2022-10-16T15:57:40;8.13;;;2.13;;
53281;SDS011;39167;52.794;6.892;2022-10-16T16:00:09;10.07;;;2.50;;
53281;SDS011;39167;52.794;6.892;2022-10-16T16:02:53;9.10;;;2.25;;
53281;SDS011;39167;52.794;6.892;2022-10-16T16:05:21;13.02;;;2.20;;
53281;SDS011;39167;52.794;6.892;2022-10-16T16:07:48;8.13;;;2.10;;
53281;SDS011;39167;52.794;6.892;2022-10-16T16:10:14;9.45;;;2.05;;
53281;SDS011;39167;52.794;6.892;2022-10-16T16:12:40;7.72;;;2.30;;
53281;SDS011;39167;52.794;6.892;2022-10-16T16:15:06;13.32;;;2.83;;
53281;SDS011;39167;52.794;6.892;2022-10-16T16:17:33;8.98;;;3.75;;
53281;SDS011;39167;52.794;6.892;2022-10-16T16:20:00;13.32;;;4.18;;
53281;SDS011;39167;52.794;6.892;2022-10-16T16:22:26;11.50;;;4.53;;
53281;SDS011;39167;52.794;6.892;2022-10-16T16:24:53;10.52;;;4.28;;
53281;SDS011;39167;52.794;6.892;2022-10-16T16:27:18;11.30;;;4.55;;
53281;SDS011;39167;52.794;6.892;2022-10-16T16:29:50;9.88;;;4.00;;
53281;SDS011;39167;52.794;6.892;2022-10-16T16:32:15;12.68;;;3.80;;
53281;SDS011;39167;52.794;6.892;2022-10-16T16:34:41;15.68;;;5.07;;
53281;SDS011;39167;52.794;6.892;2022-10-16T16:37:07;13.55;;;4.75;;
53281;SDS011;39167;52.794;6.892;2022-10-16T16:39:33;14.73;;;5.00;;
53281;SDS011;39167;52.794;6.892;2022-10-16T16:41:58;10.13;;;4.25;;
53281;SDS011;39167;52.794;6.892;2022-10-16T16:44:24;16.65;;;4.45;;
53281;SDS011;39167;52.794;6.892;2022-10-16T16:46:51;11.85;;;5.03;;
53281;SDS011;39167;52.794;6.892;2022-10-16T16:49:17;10.55;;;4.75;;
53281;SDS011;39167;52.794;6.892;2022-10-16T16:51:42;12.13;;;4.63;;
53281;SDS011;39167;52.794;6.892;2022-10-16T16:54:09;14.13;;;4.18;;
53281;SDS011;39167;52.794;6.892;2022-10-16T16:56:36;8.63;;;3.50;;
53281;SDS011;39167;52.794;6.892;2022-10-16T16:59:02;11.05;;;3.90;;
53281;SDS011;39167;52.794;6.892;2022-10-16T17:01:29;9.88;;;3.60;;
53281;SDS011;39167;52.794;6.892;2022-10-16T17:03:56;11.85;;;3.95;;
53281;SDS011;39167;52.794;6.892;2022-10-16T17:06:26;11.27;;;4.20;;
53281;SDS011;39167;52.794;6.892;2022-10-16T17:08:56;15.88;;;4.43;;
53281;SDS011;39167;52.794;6.892;2022-10-16T17:11:25;15.20;;;5.78;;
53281;SDS011;39167;52.794;6.892;2022-10-16T17:13:51;10.45;;;4.85;;